createdAt,value
2023-05-21T00:01:45.796Z,100458.56
2023-05-21T00:04:49.098Z,100452.91
2023-05-21T00:07:53.520Z,100453.34
2023-05-21T00:10:56.589Z,100450.72
2023-05-21T00:13:59.555Z,100451.19
2023-05-21T00:17:02.823Z,100454.25
2023-05-21T00:20:07.506Z,100456.09
2023-05-21T00:23:10.758Z,100453.34
2023-05-21T00:26:14.005Z,100451.34
2023-05-21T00:29:18.593Z,100440.34
2023-05-21T00:32:21.567Z,100440.22
2023-05-21T00:35:24.547Z,100434.59
2023-05-21T00:38:28.052Z,100426.81
2023-05-21T00:41:35.424Z,100423.13
2023-05-21T00:44:39.444Z,100426.19
2023-05-21T00:47:44.223Z,100423.44
2023-05-21T00:50:47.414Z,100431.22
2023-05-21T00:53:53.235Z,100428.63
2023-05-21T00:56:56.521Z,100421.59
2023-05-21T00:59:59.898Z,100423.59
2023-05-21T01:03:05.532Z,100427.38
2023-05-21T01:06:10.011Z,100427.97
2023-05-21T01:09:13.128Z,100440.97
2023-05-21T01:12:17.859Z,100431.94
2023-05-21T01:15:21.188Z,100420.50
2023-05-21T01:18:25.005Z,100411.94
2023-05-21T01:21:30.583Z,100423.22
2023-05-21T01:24:34.817Z,100421.69
2023-05-21T01:27:38.132Z,100422.88
2023-05-21T01:30:42.711Z,100421.03
2023-05-21T01:33:50.397Z,100429.13
2023-05-21T01:37:01.557Z,100427.72
2023-05-21T01:40:23.989Z,100424.34
2023-05-21T01:43:29.726Z,100421.44
2023-05-21T01:46:36.689Z,100416.84
2023-05-21T01:49:40.499Z,100418.66
2023-05-21T01:52:54.910Z,100415.84
2023-05-21T01:55:59.480Z,100419.41
2023-05-21T01:59:02.945Z,100412.22
2023-05-21T02:02:06.192Z,100416.00
2023-05-21T02:05:09.862Z,100421.47
2023-05-21T02:08:15.127Z,100419.47
2023-05-21T02:11:20.902Z,100429.00
2023-05-21T02:14:25.432Z,100430.03
2023-05-21T02:17:35.073Z,100432.47
2023-05-21T02:20:38.510Z,100435.31
2023-05-21T02:23:42.674Z,100429.66
2023-05-21T02:26:47.248Z,100441.41
2023-05-21T02:29:50.576Z,100441.50
2023-05-21T02:32:53.854Z,100437.59
2023-05-21T02:35:57.314Z,100439.38
2023-05-21T02:39:02.020Z,100439.25
2023-05-21T02:42:05.420Z,100437.09
2023-05-21T02:45:12.976Z,100430.09
2023-05-21T02:48:18.455Z,100429.63
2023-05-21T02:51:21.763Z,100430.97
2023-05-21T02:54:25.083Z,100431.22
2023-05-21T02:57:28.448Z,100432.31
2023-05-21T03:00:31.562Z,100433.00
2023-05-21T03:03:36.555Z,100435.19
2023-05-21T03:06:40.406Z,100428.19
2023-05-21T03:09:43.459Z,100430.03
2023-05-21T03:12:47.227Z,100431.59
2023-05-21T03:15:56.218Z,100426.22
2023-05-21T03:18:59.444Z,100424.03
2023-05-21T03:22:04.005Z,100435.75
2023-05-21T03:25:11.031Z,100439.28
2023-05-21T03:28:14.950Z,100443.72
2023-05-21T03:31:26.750Z,100437.69
2023-05-21T03:34:47.502Z,100445.41
2023-05-21T03:37:52.197Z,100439.16
2023-05-21T03:40:55.274Z,100444.97
2023-05-21T03:43:58.697Z,100450.19
2023-05-21T03:47:06.361Z,100446.56
2023-05-21T03:50:12.460Z,100449.06
2023-05-21T03:53:15.857Z,100443.25
2023-05-21T03:56:19.439Z,100438.84
2023-05-21T03:59:23.512Z,100444.22
2023-05-21T04:02:28.361Z,100442.13
2023-05-21T04:05:31.771Z,100438.59
2023-05-21T04:08:35.169Z,100452.34
2023-05-21T04:11:38.342Z,100444.75
2023-05-21T04:14:41.860Z,100457.00
2023-05-21T04:17:47.515Z,100451.53
2023-05-21T04:20:50.670Z,100452.81
2023-05-21T04:23:54.331Z,100464.91
2023-05-21T04:27:17.940Z,100467.53
2023-05-21T04:30:22.220Z,100473.75
2023-05-21T04:33:25.873Z,100469.56
2023-05-21T04:36:29.190Z,100475.81
2023-05-21T04:39:33.183Z,100477.75
2023-05-21T04:42:36.623Z,100477.63
2023-05-21T04:45:40.257Z,100481.31
2023-05-21T04:48:45.240Z,100471.25
2023-05-21T04:51:49.626Z,100473.84
2023-05-21T04:54:54.147Z,100467.63
2023-05-21T04:57:57.547Z,100467.19
2023-05-21T05:01:03.551Z,100463.69
2023-05-21T05:04:07.231Z,100464.81
2023-05-21T05:07:10.775Z,100466.63
2023-05-21T05:10:14.373Z,100473.50
2023-05-21T05:13:17.442Z,100481.63
2023-05-21T05:16:25.694Z,100469.59
2023-05-21T05:19:35.227Z,100475.72
2023-05-21T05:22:38.644Z,100466.56
2023-05-21T05:25:41.934Z,100472.84
2023-05-21T05:28:46.466Z,100473.44
2023-05-21T05:31:50.230Z,100477.09
2023-05-21T05:34:53.671Z,100484.41
2023-05-21T05:37:57.062Z,100485.16
2023-05-21T05:41:00.326Z,100481.63
2023-05-21T05:44:04.461Z,100489.38
2023-05-21T05:47:11.895Z,100490.81
2023-05-21T05:50:16.002Z,100485.47
2023-05-21T05:53:19.318Z,100483.59
2023-05-21T05:56:22.639Z,100486.56
2023-05-21T05:59:25.818Z,100475.41
2023-05-21T06:02:33.671Z,100472.69
2023-05-21T06:05:36.934Z,100481.31
2023-05-21T06:08:40.673Z,100473.81
2023-05-21T06:11:44.006Z,100469.78
2023-05-21T06:14:49.081Z,100465.09
2023-05-21T06:17:52.381Z,100468.44
2023-05-21T06:20:55.956Z,100465.06
2023-05-21T06:24:00.175Z,100470.78
2023-05-21T06:27:05.165Z,100471.34
2023-05-21T06:30:09.704Z,100461.22
2023-05-21T06:33:15.405Z,100468.88
2023-05-21T06:36:18.960Z,100457.72
2023-05-21T06:39:25.673Z,100459.53
2023-05-21T06:42:28.756Z,100458.75
2023-05-21T06:45:51.798Z,100458.47
2023-05-21T06:49:14.148Z,100460.84
2023-05-21T06:52:18.105Z,100464.34
2023-05-21T06:55:21.797Z,100457.56
2023-05-21T06:58:37.669Z,100465.78
2023-05-21T07:01:42.660Z,100460.97
2023-05-21T07:04:46.158Z,100460.34
2023-05-21T07:07:49.284Z,100458.22
2023-05-21T07:10:52.595Z,100456.72
2023-05-21T07:13:58.829Z,100462.41
2023-05-21T07:17:02.195Z,100454.59
2023-05-21T07:20:10.112Z,100456.38
2023-05-21T07:23:15.269Z,100455.72
2023-05-21T07:29:36.849Z,100461.72
2023-05-21T07:32:40.132Z,100455.91
2023-05-21T07:35:43.621Z,100448.91
2023-05-21T07:38:46.942Z,100439.63
2023-05-21T07:41:50.166Z,100448.38
2023-05-21T07:44:53.503Z,100441.69
2023-05-21T07:47:57.399Z,100442.50
2023-05-21T07:51:01.879Z,100442.13
2023-05-21T07:54:05.299Z,100438.97
2023-05-21T07:57:11.763Z,100445.69
2023-05-21T08:00:44.076Z,100448.78
2023-05-21T08:03:48.130Z,100442.53
2023-05-21T08:06:51.655Z,100445.91
2023-05-21T08:09:54.721Z,100450.41
2023-05-21T08:12:58.028Z,100439.56
2023-05-21T08:16:01.177Z,100438.38
2023-05-21T08:19:04.623Z,100432.34
2023-05-21T08:22:08.300Z,100425.47
2023-05-21T08:25:13.563Z,100430.81
2023-05-21T08:28:16.727Z,100419.19
2023-05-21T08:31:19.718Z,100421.88
2023-05-21T08:34:23.409Z,100433.53
2023-05-21T08:37:37.400Z,100428.53
2023-05-21T08:40:55.169Z,100424.66
2023-05-21T08:44:02.136Z,100428.47
2023-05-21T08:47:08.088Z,100424.22
2023-05-21T08:50:14.050Z,100421.53
2023-05-21T08:53:27.356Z,100428.69
2023-05-21T08:56:36.053Z,100427.72
2023-05-21T08:59:44.241Z,100418.91
2023-05-21T09:02:56.507Z,100423.84
2023-05-21T09:06:01.999Z,100424.50
2023-05-21T09:09:37.011Z,100418.22
2023-05-21T09:12:42.785Z,100423.25
2023-05-21T09:15:47.301Z,100419.94
2023-05-21T09:18:51.977Z,100421.31
2023-05-21T09:22:03.882Z,100422.31
2023-05-21T09:25:10.690Z,100422.16
2023-05-21T09:28:15.869Z,100421.88
2023-05-21T09:31:19.105Z,100423.19
2023-05-21T09:34:25.323Z,100424.97
2023-05-21T09:37:28.374Z,100420.09
2023-05-21T09:40:31.988Z,100419.69
2023-05-21T09:43:36.974Z,100415.91
2023-05-21T09:46:41.939Z,100423.28
2023-05-21T09:49:45.763Z,100414.19
2023-05-21T09:52:50.811Z,100416.69
2023-05-21T09:55:58.132Z,100411.91
2023-05-21T09:59:04.598Z,100413.94
2023-05-21T10:02:22.915Z,100406.16
2023-05-21T10:05:31.098Z,100401.63
2023-05-21T10:08:39.579Z,100401.38
2023-05-21T10:11:45.081Z,100401.88
2023-05-21T10:14:54.218Z,100398.84
2023-05-21T10:17:59.247Z,100397.59
2023-05-21T10:21:07.269Z,100404.66
2023-05-21T10:24:11.416Z,100398.59
2023-05-21T10:27:14.712Z,100394.75
2023-05-21T10:30:18.680Z,100400.56
2023-05-21T10:33:24.427Z,100398.50
2023-05-21T10:36:33.538Z,100392.13
2023-05-21T10:39:39.036Z,100398.38
2023-05-21T10:43:23.389Z,100389.94
2023-05-21T10:47:11.426Z,100394.44
2023-05-21T10:50:35.720Z,100391.84
2023-05-21T10:54:11.296Z,100379.47
2023-05-21T10:57:29.298Z,100385.84
2023-05-21T11:01:00.078Z,100381.84
2023-05-21T11:04:04.986Z,100383.66
2023-05-21T11:07:08.629Z,100380.16
2023-05-21T11:10:40.837Z,100374.13
2023-05-21T11:13:51.230Z,100375.06
2023-05-21T11:16:55.070Z,100368.31
2023-05-21T11:20:05.374Z,100366.97
2023-05-21T11:23:11.446Z,100369.84
2023-05-21T11:26:19.241Z,100365.19
2023-05-21T11:29:33.634Z,100366.31
2023-05-21T11:32:41.403Z,100363.75
2023-05-21T11:35:50.258Z,100361.84
2023-05-21T11:39:10.947Z,100354.59
2023-05-21T11:42:39.512Z,100361.34
2023-05-21T11:45:47.332Z,100346.47
2023-05-21T11:48:52.867Z,100355.38
2023-05-21T11:51:56.940Z,100352.53
2023-05-21T11:55:00.207Z,100355.28
2023-05-21T11:58:03.799Z,100350.41
2023-05-21T12:01:07.240Z,100347.38
2023-05-21T12:04:13.718Z,100346.06
2023-05-21T12:07:19.417Z,100343.66
2023-05-21T12:10:24.329Z,100335.16
2023-05-21T12:13:28.601Z,100330.63
2023-05-21T12:16:32.888Z,100336.34
2023-05-21T12:19:38.197Z,100329.19
2023-05-21T12:22:45.075Z,100326.25
2023-05-21T12:25:48.561Z,100324.50
2023-05-21T12:28:56.329Z,100331.72
2023-05-21T12:32:01.397Z,100322.53
2023-05-21T12:35:04.908Z,100315.84
2023-05-21T12:38:09.728Z,100322.47
2023-05-21T12:41:12.711Z,100322.63
2023-05-21T12:44:15.794Z,100322.91
2023-05-21T12:47:22.765Z,100308.13
2023-05-21T12:50:26.754Z,100306.78
2023-05-21T12:53:44.605Z,100298.94
2023-05-21T12:56:47.540Z,100304.13
2023-05-21T12:59:51.661Z,100293.22
2023-05-21T13:02:57.165Z,100302.66
2023-05-21T13:06:01.324Z,100296.81
2023-05-21T13:09:04.759Z,100289.25
2023-05-21T13:12:08.299Z,100287.28
2023-05-21T13:15:11.536Z,100289.72
2023-05-21T13:18:16.090Z,100280.97
2023-05-21T13:21:19.238Z,100279.44
2023-05-21T13:24:22.329Z,100272.22
2023-05-21T13:27:25.721Z,100274.19
2023-05-21T13:30:28.956Z,100274.03
2023-05-21T13:33:32.371Z,100274.25
2023-05-21T13:36:36.144Z,100264.72
2023-05-21T13:39:39.328Z,100262.88
2023-05-21T13:42:43.573Z,100265.50
2023-05-21T13:45:49.621Z,100262.22
2023-05-21T13:48:53.224Z,100261.00
2023-05-21T13:51:58.284Z,100258.31
2023-05-21T13:55:01.712Z,100253.44
2023-05-21T13:58:04.759Z,100251.13
2023-05-21T14:01:08.093Z,100248.22
2023-05-21T14:04:12.301Z,100241.91
2023-05-21T14:07:15.668Z,100240.63
2023-05-21T14:10:18.890Z,100247.41
2023-05-21T14:13:22.383Z,100240.78
2023-05-21T14:16:27.643Z,100245.75
2023-05-21T14:19:30.759Z,100251.72
2023-05-21T14:22:34.047Z,100251.75
2023-05-21T14:25:37.674Z,100251.47
2023-05-21T14:28:41.908Z,100242.38
2023-05-21T14:31:46.484Z,100236.44
2023-05-21T14:34:49.690Z,100242.00
2023-05-21T14:37:54.192Z,100244.22
2023-05-21T14:40:57.794Z,100230.88
2023-05-21T14:44:01.020Z,100237.72
2023-05-21T14:47:04.344Z,100231.16
2023-05-21T14:50:09.213Z,100230.25
2023-05-21T14:53:12.675Z,100233.31
2023-05-21T14:56:15.901Z,100225.00
2023-05-21T14:59:19.072Z,100217.16
2023-05-21T15:02:22.662Z,100224.47
2023-05-21T15:10:08.489Z,100213.41
2023-05-21T15:13:11.560Z,100207.38
2023-05-21T15:16:15.697Z,100201.31
2023-05-21T15:19:20.705Z,100198.78
2023-05-21T15:22:23.718Z,100199.06
2023-05-21T15:25:26.883Z,100204.06
2023-05-21T15:28:29.973Z,100203.56
2023-05-21T15:31:33.395Z,100202.34
2023-05-21T15:34:36.471Z,100196.84
2023-05-21T15:37:43.799Z,100195.09
2023-05-21T15:40:47.789Z,100191.22
2023-05-21T15:43:50.803Z,100193.50
2023-05-21T15:46:55.029Z,100192.81
2023-05-21T15:50:00.520Z,100193.78
2023-05-21T15:53:04.846Z,100194.06
2023-05-21T15:56:10.505Z,100189.56
2023-05-21T15:59:14.285Z,100189.09
2023-05-21T16:02:17.410Z,100191.88
2023-05-21T16:05:20.708Z,100194.53
2023-05-21T16:08:23.940Z,100190.50
2023-05-21T16:11:27.936Z,100196.84
2023-05-21T16:14:31.331Z,100203.22
2023-05-21T16:17:34.379Z,100197.94
2023-05-21T16:25:19.887Z,100206.34
2023-05-21T16:28:24.613Z,100211.19
2023-05-21T16:31:27.940Z,100205.38
2023-05-21T16:34:31.236Z,100205.63
2023-05-21T16:37:34.648Z,100212.91
2023-05-21T16:40:38.003Z,100212.47
2023-05-21T16:43:41.133Z,100211.72
2023-05-21T16:46:44.270Z,100207.91
2023-05-21T16:49:47.562Z,100200.88
2023-05-21T16:52:50.898Z,100198.63
2023-05-21T16:55:54.379Z,100208.22
2023-05-21T16:58:57.434Z,100201.69
2023-05-21T17:02:00.790Z,100207.97
2023-05-21T17:05:04.917Z,100210.00
2023-05-21T17:08:10.927Z,100207.97
2023-05-21T17:11:14.124Z,100212.03
2023-05-21T17:14:33.144Z,100213.31
2023-05-21T17:17:37.240Z,100213.53
2023-05-21T17:20:40.684Z,100222.88
2023-05-21T17:23:46.584Z,100218.63
2023-05-21T17:26:49.715Z,100224.91
2023-05-21T17:29:53.114Z,100229.19
2023-05-21T17:32:56.249Z,100219.09
2023-05-21T17:35:59.375Z,100217.56
2023-05-21T17:39:02.456Z,100224.84
2023-05-21T17:42:06.044Z,100228.34
2023-05-21T17:45:09.798Z,100223.31
2023-05-21T17:48:13.044Z,100220.25
2023-05-21T17:51:16.573Z,100225.53
2023-05-21T17:54:19.953Z,100222.97
2023-05-21T17:57:23.476Z,100223.44
2023-05-21T18:00:26.753Z,100214.06
2023-05-21T18:03:30.390Z,100217.50
2023-05-21T18:06:33.717Z,100213.91
2023-05-21T18:09:36.869Z,100211.84
2023-05-21T18:12:39.866Z,100219.28
2023-05-21T18:15:43.137Z,100217.22
2023-05-21T18:18:46.725Z,100216.16
2023-05-21T18:21:49.906Z,100219.06
2023-05-21T18:24:52.752Z,100212.91
2023-05-21T18:27:56.494Z,100205.81
2023-05-21T18:31:06.471Z,100213.53
2023-05-21T18:34:09.842Z,100222.59
2023-05-21T18:37:13.291Z,100220.47
2023-05-21T18:40:18.263Z,100229.16
2023-05-21T18:43:22.040Z,100224.47
2023-05-21T18:46:25.625Z,100232.44
2023-05-21T18:49:33.983Z,100230.56
2023-05-21T18:52:37.180Z,100239.22
2023-05-21T18:55:40.384Z,100239.91
2023-05-21T18:58:44.073Z,100247.84
2023-05-21T19:01:47.391Z,100248.06
2023-05-21T19:04:50.685Z,100259.13
2023-05-21T19:07:53.794Z,100255.59
2023-05-21T19:10:57.488Z,100257.22
2023-05-21T19:14:01.616Z,100269.44
2023-05-21T19:17:05.213Z,100268.88
2023-05-21T19:20:09.541Z,100265.78
2023-05-21T19:23:12.924Z,100274.06
2023-05-21T19:26:17.056Z,100276.28
2023-05-21T19:29:21.685Z,100272.66
2023-05-21T19:32:25.624Z,100277.63
2023-05-21T19:35:32.696Z,100283.06
2023-05-21T19:38:36.274Z,100290.72
2023-05-21T19:41:40.635Z,100288.44
2023-05-21T19:44:44.148Z,100285.63
2023-05-21T19:47:47.443Z,100278.28
2023-05-21T19:50:51.359Z,100286.28
2023-05-21T19:53:54.514Z,100286.38
2023-05-21T19:56:58.111Z,100289.53
2023-05-21T20:00:01.655Z,100294.22
2023-05-21T20:03:07.170Z,100292.88
2023-05-21T20:06:13.207Z,100291.81
2023-05-21T20:09:18.229Z,100290.97
2023-05-21T20:12:21.923Z,100290.69
2023-05-21T20:18:42.818Z,100299.25
2023-05-21T20:21:45.894Z,100297.91
2023-05-21T20:24:48.978Z,100300.66
2023-05-21T20:27:52.127Z,100305.41
2023-05-21T20:31:02.452Z,100295.16
2023-05-21T20:34:07.892Z,100294.56
2023-05-21T20:37:11.693Z,100296.94
2023-05-21T20:40:15.076Z,100291.41
2023-05-21T20:43:21.906Z,100287.91
2023-05-21T20:46:25.918Z,100294.09
2023-05-21T20:49:29.086Z,100301.72
2023-05-21T20:52:32.423Z,100292.78
2023-05-21T20:55:35.928Z,100294.88
2023-05-21T20:58:40.117Z,100297.84
2023-05-21T21:01:43.330Z,100288.00
2023-05-21T21:04:50.803Z,100294.22
2023-05-21T21:07:55.876Z,100291.72
2023-05-21T21:10:59.333Z,100294.78
2023-05-21T21:14:03.006Z,100281.00
2023-05-21T21:17:06.221Z,100288.31
2023-05-21T21:20:10.916Z,100288.41
2023-05-21T21:23:13.961Z,100285.25
2023-05-21T21:26:17.816Z,100281.25
2023-05-21T21:29:21.122Z,100283.53
2023-05-21T21:32:26.291Z,100287.22
2023-05-21T21:35:29.613Z,100285.63
2023-05-21T21:38:32.722Z,100291.94
2023-05-21T21:41:35.977Z,100283.91
2023-05-21T21:44:39.588Z,100299.44
2023-05-21T21:47:42.741Z,100305.81
2023-05-21T21:50:46.426Z,100299.84
2023-05-21T21:53:49.810Z,100302.31
2023-05-21T21:56:53.016Z,100304.81
2023-05-21T21:59:56.291Z,100309.56
2023-05-21T22:02:59.769Z,100301.13
2023-05-21T22:06:03.081Z,100292.47
2023-05-21T22:09:07.731Z,100289.88
2023-05-21T22:12:12.173Z,100291.56
2023-05-21T22:15:20.510Z,100285.44
2023-05-21T22:18:38.748Z,100284.09
2023-05-21T22:21:46.446Z,100282.78
2023-05-21T22:24:51.290Z,100278.81
2023-05-21T22:27:54.871Z,100271.81
2023-05-21T22:30:59.155Z,100269.88
2023-05-21T22:34:02.264Z,100280.69
2023-05-21T22:37:06.386Z,100280.41
2023-05-21T22:40:10.742Z,100279.06
2023-05-21T22:43:14.481Z,100282.56
2023-05-21T22:46:17.885Z,100275.09
2023-05-21T22:49:20.910Z,100277.38
2023-05-21T22:52:24.464Z,100281.06
2023-05-21T22:55:27.728Z,100280.16
2023-05-21T22:58:32.665Z,100280.41
2023-05-21T23:01:38.259Z,100277.84
2023-05-21T23:04:44.809Z,100280.59
2023-05-21T23:07:48.004Z,100281.81
2023-05-21T23:10:51.008Z,100287.91
2023-05-21T23:13:54.068Z,100283.97
2023-05-21T23:17:02.403Z,100287.78
2023-05-21T23:20:07.560Z,100290.22
2023-05-21T23:23:11.681Z,100292.34
2023-05-21T23:26:14.919Z,100288.22
2023-05-21T23:29:18.392Z,100285.47
2023-05-21T23:32:21.624Z,100285.03
2023-05-21T23:35:24.755Z,100289.59
2023-05-21T23:38:28.095Z,100271.56
2023-05-21T23:41:31.495Z,100280.84
2023-05-21T23:44:34.507Z,100283.91
2023-05-21T23:47:37.708Z,100291.53
2023-05-21T23:50:40.923Z,100309.81
2023-05-21T23:53:44.172Z,100294.16
2023-05-21T23:56:47.217Z,100291.91
2023-05-21T23:59:50.155Z,100300.13
